createdAt,value
2019-02-06T00:00:58.323Z,-0.83
2019-02-06T00:01:58.309Z,-0.85
2019-02-06T00:02:58.291Z,-0.80
2019-02-06T00:03:58.271Z,-0.78
2019-02-06T00:04:58.245Z,-0.78
2019-02-06T00:05:58.233Z,-0.83
2019-02-06T00:06:58.211Z,-0.82
2019-02-06T00:07:58.194Z,-0.92
2019-02-06T00:08:58.172Z,-0.91
2019-02-06T00:09:58.152Z,-1.01
2019-02-06T00:10:58.131Z,-0.98
2019-02-06T00:11:58.112Z,-1.09
2019-02-06T00:12:58.091Z,-1.23
2019-02-06T00:13:58.072Z,-1.19
2019-02-06T00:14:58.081Z,-1.27
2019-02-06T00:15:58.029Z,-1.25
2019-02-06T00:16:58.027Z,-1.38
2019-02-06T00:17:57.995Z,-1.17
2019-02-06T00:18:57.972Z,-1.23
2019-02-06T00:19:57.952Z,-1.28
2019-02-06T00:20:57.934Z,-1.31
2019-02-06T00:21:57.917Z,-1.31
2019-02-06T00:22:57.889Z,-1.22
2019-02-06T00:23:57.871Z,-1.25
2019-02-06T00:24:57.850Z,-1.25
2019-02-06T00:25:57.832Z,-1.17
2019-02-06T00:26:57.815Z,-1.23
2019-02-06T00:27:57.789Z,-1.19
2019-02-06T00:28:57.771Z,-1.20
2019-02-06T00:29:57.763Z,-1.23
2019-02-06T00:30:57.734Z,-1.19
2019-02-06T00:31:57.715Z,-1.35
2019-02-06T00:32:57.688Z,-1.37
2019-02-06T00:33:57.680Z,-1.27
2019-02-06T00:34:57.654Z,-1.31
2019-02-06T00:35:57.632Z,-1.20
2019-02-06T00:36:57.615Z,-1.30
2019-02-06T00:37:57.595Z,-1.28
2019-02-06T00:38:57.583Z,-1.30
2019-02-06T00:39:57.559Z,-1.34
2019-02-06T00:40:57.538Z,-1.28
2019-02-06T00:41:57.514Z,-1.31
2019-02-06T00:42:57.494Z,-1.31
2019-02-06T00:43:57.474Z,-1.25
2019-02-06T00:44:57.452Z,-1.34
2019-02-06T00:45:57.436Z,-1.30
2019-02-06T00:46:57.413Z,-1.37
2019-02-06T00:47:57.392Z,-1.31
2019-02-06T00:48:57.372Z,-1.27
2019-02-06T00:49:57.355Z,-1.17
2019-02-06T00:50:57.339Z,-1.27
2019-02-06T00:51:57.313Z,-1.17
2019-02-06T00:52:57.291Z,-1.22
2019-02-06T00:53:57.273Z,-1.28
2019-02-06T00:54:57.259Z,-1.28
2019-02-06T00:55:57.235Z,-1.38
2019-02-06T00:56:57.216Z,-1.37
2019-02-06T00:57:57.201Z,-1.46
2019-02-06T00:58:57.175Z,-1.46
2019-02-06T00:59:58.576Z,-1.49
2019-02-06T01:00:57.133Z,-1.43
2019-02-06T01:01:57.119Z,-1.51
2019-02-06T01:02:57.095Z,-1.48
2019-02-06T01:03:57.075Z,-1.52
2019-02-06T01:04:57.053Z,-1.46
2019-02-06T01:05:57.034Z,-1.48
2019-02-06T01:06:57.015Z,-1.34
2019-02-06T01:07:56.991Z,-1.38
2019-02-06T01:08:56.971Z,-1.28
2019-02-06T01:09:56.952Z,-1.25
2019-02-06T01:10:56.933Z,-1.23
2019-02-06T01:11:56.920Z,-1.17
2019-02-06T01:12:56.897Z,-1.27
2019-02-06T01:13:56.873Z,-1.31
2019-02-06T01:14:56.855Z,-1.33
2019-02-06T01:15:56.851Z,-1.25
2019-02-06T01:16:56.816Z,-1.31
2019-02-06T01:17:56.793Z,-1.28
2019-02-06T01:18:56.775Z,-1.27
2019-02-06T01:19:56.842Z,-1.30
2019-02-06T01:20:56.734Z,-1.35
2019-02-06T01:21:56.721Z,-1.35
2019-02-06T01:22:56.697Z,-1.35
2019-02-06T01:23:56.676Z,-1.40
2019-02-06T01:24:56.652Z,-1.54
2019-02-06T01:25:56.632Z,-1.52
2019-02-06T01:26:56.617Z,-1.62
2019-02-06T01:27:56.593Z,-1.66
2019-02-06T01:28:56.571Z,-1.69
2019-02-06T01:29:56.556Z,-1.67
2019-02-06T01:30:56.531Z,-1.70
2019-02-06T01:31:56.517Z,-1.74
2019-02-06T01:32:56.492Z,-1.77
2019-02-06T01:33:56.595Z,-1.69
2019-02-06T01:34:56.461Z,-1.74
2019-02-06T01:35:56.428Z,-1.79
2019-02-06T01:36:56.415Z,-1.77
2019-02-06T01:37:56.388Z,-1.79
2019-02-06T01:38:56.378Z,-1.73
2019-02-06T01:39:56.362Z,-1.64
2019-02-06T01:40:56.328Z,-1.76
2019-02-06T01:41:56.304Z,-1.80
2019-02-06T01:42:56.290Z,-1.73
2019-02-06T01:43:56.265Z,-1.82
2019-02-06T01:44:56.248Z,-1.76
2019-02-06T01:45:56.226Z,-1.77
2019-02-06T01:46:56.210Z,-1.77
2019-02-06T01:47:56.188Z,-1.73
2019-02-06T01:48:56.168Z,-1.77
2019-02-06T01:49:56.145Z,-1.70
2019-02-06T01:50:56.132Z,-1.76
2019-02-06T01:51:56.112Z,-1.76
2019-02-06T01:52:56.088Z,-1.74
2019-02-06T01:53:56.065Z,-1.76
2019-02-06T01:54:56.051Z,-1.74
2019-02-06T01:55:56.021Z,-1.77
2019-02-06T01:56:56.007Z,-1.72
2019-02-06T01:57:55.991Z,-1.76
2019-02-06T01:58:55.967Z,-1.77
2019-02-06T01:59:55.945Z,-1.76
2019-02-06T02:00:55.920Z,-1.74
2019-02-06T02:01:55.904Z,-1.74
2019-02-06T02:02:55.886Z,-1.74
2019-02-06T02:03:55.862Z,-1.73
2019-02-06T02:04:55.843Z,-1.76
2019-02-06T02:06:02.378Z,-1.74
2019-02-06T02:06:55.805Z,-1.70
2019-02-06T02:07:55.779Z,-1.73
2019-02-06T02:08:55.767Z,-1.77
2019-02-06T02:09:55.738Z,-1.67
2019-02-06T02:10:55.722Z,-1.59
2019-02-06T02:11:55.695Z,-1.67
2019-02-06T02:12:55.679Z,-1.61
2019-02-06T02:13:55.656Z,-1.51
2019-02-06T02:14:55.636Z,-1.51
2019-02-06T02:15:55.616Z,-1.61
2019-02-06T02:16:55.595Z,-1.58
2019-02-06T02:17:55.579Z,-1.62
2019-02-06T02:18:55.555Z,-1.56
2019-02-06T02:19:55.539Z,-1.54
2019-02-06T02:20:55.517Z,-1.45
2019-02-06T02:21:55.499Z,-1.41
2019-02-06T02:22:55.475Z,-1.46
2019-02-06T02:23:55.453Z,-1.51
2019-02-06T02:24:55.430Z,-1.40
2019-02-06T02:25:55.428Z,-1.52
2019-02-06T02:26:55.396Z,-1.48
2019-02-06T02:27:55.378Z,-1.52
2019-02-06T02:28:55.352Z,-1.49
2019-02-06T02:29:55.330Z,-1.52
2019-02-06T02:30:55.314Z,-1.49
2019-02-06T02:31:55.290Z,-1.61
2019-02-06T02:32:55.271Z,-1.51
2019-02-06T02:33:55.251Z,-1.58
2019-02-06T02:34:55.234Z,-1.58
2019-02-06T02:35:55.213Z,-1.55
2019-02-06T02:36:55.202Z,-1.56
2019-02-06T02:37:55.170Z,-1.58
2019-02-06T02:38:55.147Z,-1.52
2019-02-06T02:39:55.126Z,-1.55
2019-02-06T02:40:55.111Z,-1.45
2019-02-06T02:41:55.089Z,-1.41
2019-02-06T02:42:55.065Z,-1.45
2019-02-06T02:43:55.045Z,-1.45
2019-02-06T02:44:55.033Z,-1.35
2019-02-06T02:45:55.009Z,-1.48
2019-02-06T02:46:54.992Z,-1.40
2019-02-06T02:47:54.973Z,-1.45
2019-02-06T02:48:54.949Z,-1.56
2019-02-06T02:49:54.937Z,-1.67
2019-02-06T02:50:54.920Z,-1.73
2019-02-06T02:51:54.885Z,-1.72
2019-02-06T02:52:54.866Z,-1.91
2019-02-06T02:53:54.849Z,-1.76
2019-02-06T02:54:54.824Z,-1.74
2019-02-06T02:55:54.808Z,-1.77
2019-02-06T02:56:54.862Z,-1.74
2019-02-06T02:57:54.769Z,-1.80
2019-02-06T02:58:54.745Z,-1.74
2019-02-06T02:59:54.736Z,-1.67
2019-02-06T03:00:54.703Z,-1.73
2019-02-06T03:01:54.685Z,-1.79
2019-02-06T03:02:54.663Z,-1.80
2019-02-06T03:03:54.661Z,-1.77
2019-02-06T03:04:54.651Z,-1.73
2019-02-06T03:05:54.602Z,-1.74
2019-02-06T03:06:54.585Z,-1.79
2019-02-06T03:07:54.562Z,-1.73
2019-02-06T03:08:54.541Z,-1.59
2019-02-06T03:09:54.517Z,-1.66
2019-02-06T03:10:54.502Z,-1.76
2019-02-06T03:11:54.476Z,-1.74
2019-02-06T03:12:54.454Z,-1.74
2019-02-06T03:13:54.443Z,-1.74
2019-02-06T03:14:54.410Z,-1.77
2019-02-06T03:15:54.428Z,-1.80
2019-02-06T03:16:54.373Z,-1.77
2019-02-06T03:17:54.355Z,-1.70
2019-02-06T03:18:54.338Z,-1.69
2019-02-06T03:19:54.308Z,-1.67
2019-02-06T03:20:54.293Z,-1.67
2019-02-06T03:21:54.269Z,-1.62
2019-02-06T03:22:54.257Z,-1.67
2019-02-06T03:23:54.244Z,-1.70
2019-02-06T03:24:54.207Z,-1.64
2019-02-06T03:25:54.193Z,-1.56
2019-02-06T03:26:54.171Z,-1.56
2019-02-06T03:27:54.153Z,-1.58
2019-02-06T03:28:54.136Z,-1.62
2019-02-06T03:29:54.110Z,-1.67
2019-02-06T03:30:54.093Z,-1.64
2019-02-06T03:31:54.071Z,-1.70
2019-02-06T03:32:54.055Z,-1.77
2019-02-06T03:33:54.033Z,-1.76
2019-02-06T03:34:54.008Z,-1.80
2019-02-06T03:35:53.995Z,-1.67
2019-02-06T03:36:53.973Z,-1.64
2019-02-06T03:37:53.962Z,-1.76
2019-02-06T03:38:53.928Z,-1.69
2019-02-06T03:39:53.907Z,-1.74
2019-02-06T03:40:53.894Z,-1.74
2019-02-06T03:41:53.864Z,-1.70
2019-02-06T03:42:53.849Z,-1.69
2019-02-06T03:43:53.819Z,-1.76
2019-02-06T03:44:53.809Z,-1.67
2019-02-06T03:45:53.875Z,-1.69
2019-02-06T03:46:53.766Z,-1.69
2019-02-06T03:47:53.744Z,-1.66
2019-02-06T03:48:53.730Z,-1.64
2019-02-06T03:49:53.710Z,-1.66
2019-02-06T03:50:53.687Z,-1.66
2019-02-06T03:51:53.659Z,-1.67
2019-02-06T03:52:53.701Z,-1.67
2019-02-06T03:53:53.618Z,-1.67
2019-02-06T03:54:53.606Z,-1.61
2019-02-06T03:55:53.593Z,-1.67
2019-02-06T03:56:53.575Z,-1.61
2019-02-06T03:57:53.545Z,-1.64
2019-02-06T03:58:53.522Z,-1.61
2019-02-06T03:59:53.501Z,-1.70
2019-02-06T04:00:53.480Z,-1.70
2019-02-06T04:01:53.462Z,-1.67
2019-02-06T04:02:53.441Z,-1.67
2019-02-06T04:03:53.417Z,-1.77
2019-02-06T04:04:53.403Z,-1.77
2019-02-06T04:05:53.382Z,-1.69
2019-02-06T04:07:00.693Z,-1.76
2019-02-06T04:07:53.341Z,-1.79
2019-02-06T04:08:53.322Z,-1.66
2019-02-06T04:09:53.301Z,-1.67
2019-02-06T04:10:53.274Z,-1.76
2019-02-06T04:11:53.263Z,-1.69
2019-02-06T04:12:53.238Z,-1.80
2019-02-06T04:13:53.223Z,-1.74
2019-02-06T04:14:53.202Z,-1.74
2019-02-06T04:15:53.182Z,-1.77
2019-02-06T04:16:53.159Z,-1.74
2019-02-06T04:17:54.512Z,-1.67
2019-02-06T04:18:53.119Z,-1.66
2019-02-06T04:19:53.090Z,-1.64
2019-02-06T04:20:53.076Z,-1.73
2019-02-06T04:21:53.056Z,-1.69
2019-02-06T04:22:53.037Z,-1.73
2019-02-06T04:23:53.017Z,-1.67
2019-02-06T04:24:52.991Z,-1.77
2019-02-06T04:25:52.972Z,-1.74
2019-02-06T04:26:52.948Z,-1.88
2019-02-06T04:27:52.926Z,-1.92
2019-02-06T04:28:52.912Z,-1.92
2019-02-06T04:29:52.890Z,-1.98
2019-02-06T04:30:52.884Z,-2.05
2019-02-06T04:31:52.852Z,-2.02
2019-02-06T04:32:52.824Z,-2.12
2019-02-06T04:33:52.812Z,-2.03
2019-02-06T04:34:52.794Z,-2.00
2019-02-06T04:35:52.775Z,-2.08
2019-02-06T04:37:05.769Z,-2.00
2019-02-06T04:37:52.729Z,-2.08
2019-02-06T04:38:52.706Z,-2.09
2019-02-06T04:39:52.769Z,-2.06
2019-02-06T04:40:52.672Z,-2.06
2019-02-06T04:41:52.650Z,-2.00
2019-02-06T04:42:52.624Z,-1.92
2019-02-06T04:43:52.606Z,-1.98
2019-02-06T04:44:52.589Z,-1.94
2019-02-06T04:45:52.563Z,-1.91
2019-02-06T04:46:52.543Z,-1.91
2019-02-06T04:47:52.522Z,-1.95
2019-02-06T04:48:52.502Z,-1.92
2019-02-06T04:49:52.478Z,-2.00
2019-02-06T04:50:52.466Z,-1.91
2019-02-06T04:51:52.438Z,-1.95
2019-02-06T04:52:52.415Z,-1.98
2019-02-06T04:53:52.400Z,-2.03
2019-02-06T04:54:52.372Z,-2.03
2019-02-06T04:55:52.361Z,-2.02
2019-02-06T04:56:52.337Z,-2.09
2019-02-06T04:57:52.320Z,-2.12
2019-02-06T04:58:52.293Z,-2.10
2019-02-06T04:59:52.273Z,-2.15
2019-02-06T05:00:52.253Z,-2.09
2019-02-06T05:01:52.235Z,-2.09
2019-02-06T05:02:52.211Z,-2.12
2019-02-06T05:03:52.195Z,-1.95
2019-02-06T05:04:52.170Z,-1.95
2019-02-06T05:05:52.151Z,-1.98
2019-02-06T05:06:52.132Z,-1.94
2019-02-06T05:07:52.110Z,-1.92
2019-02-06T05:08:52.094Z,-1.92
2019-02-06T05:09:52.068Z,-1.95
2019-02-06T05:10:52.049Z,-2.00
2019-02-06T05:11:52.024Z,-1.94
2019-02-06T05:12:52.007Z,-1.84
2019-02-06T05:13:51.989Z,-1.90
2019-02-06T05:14:51.965Z,-1.91
2019-02-06T05:15:51.947Z,-1.91
2019-02-06T05:16:51.922Z,-1.95
2019-02-06T05:17:51.898Z,-1.82
2019-02-06T05:18:51.878Z,-1.82
2019-02-06T05:19:51.859Z,-1.92
2019-02-06T05:20:51.835Z,-1.97
2019-02-06T05:21:51.819Z,-1.95
2019-02-06T05:22:51.796Z,-1.97
2019-02-06T05:23:51.780Z,-1.97
2019-02-06T05:24:51.760Z,-1.98
2019-02-06T05:25:51.730Z,-2.06
2019-02-06T05:26:51.717Z,-2.08
2019-02-06T05:27:51.693Z,-2.12
2019-02-06T05:28:51.678Z,-2.15
2019-02-06T05:29:51.657Z,-2.13
2019-02-06T05:30:51.654Z,-2.13
2019-02-06T05:31:51.608Z,-2.09
2019-02-06T05:32:51.587Z,-2.27
2019-02-06T05:33:51.571Z,-2.23
2019-02-06T05:34:51.544Z,-2.21
2019-02-06T05:35:51.533Z,-2.24
2019-02-06T05:36:51.511Z,-2.24
2019-02-06T05:37:51.632Z,-2.24
2019-02-06T05:38:51.468Z,-2.26
2019-02-06T05:39:51.447Z,-2.20
2019-02-06T05:40:51.430Z,-2.20
2019-02-06T05:41:51.406Z,-2.10
2019-02-06T05:42:52.765Z,-2.20
2019-02-06T05:43:51.370Z,-2.20
2019-02-06T05:44:51.340Z,-2.18
2019-02-06T05:45:51.319Z,-2.26
2019-02-06T05:46:51.302Z,-2.18
2019-02-06T05:47:51.282Z,-2.20
2019-02-06T05:48:51.256Z,-2.34
2019-02-06T05:49:51.240Z,-2.29
2019-02-06T05:50:51.215Z,-2.26
2019-02-06T05:51:51.197Z,-2.21
2019-02-06T05:52:51.236Z,-2.20
2019-02-06T05:53:51.167Z,-2.30
2019-02-06T05:54:51.138Z,-2.35
2019-02-06T05:55:51.108Z,-2.24
2019-02-06T05:56:51.085Z,-2.24
2019-02-06T05:57:51.071Z,-2.16
2019-02-06T05:58:51.049Z,-2.21
2019-02-06T05:59:51.021Z,-2.16
2019-02-06T06:00:51.009Z,-2.20
2019-02-06T06:01:50.985Z,-2.21
2019-02-06T06:02:50.966Z,-2.09
2019-02-06T06:03:50.942Z,-2.18
2019-02-06T06:04:50.925Z,-2.12
2019-02-06T06:05:50.899Z,-2.06
2019-02-06T06:06:50.885Z,-2.21
2019-02-06T06:07:50.863Z,-2.12
2019-02-06T06:08:50.842Z,-2.13
2019-02-06T06:09:50.817Z,-2.12
2019-02-06T06:10:50.796Z,-2.15
2019-02-06T06:11:50.776Z,-2.16
2019-02-06T06:12:50.752Z,-2.12
2019-02-06T06:13:50.739Z,-2.10
2019-02-06T06:14:50.715Z,-2.05
2019-02-06T06:15:50.697Z,-2.06
2019-02-06T06:16:50.669Z,-2.03
2019-02-06T06:17:50.653Z,-2.03
2019-02-06T06:18:50.625Z,-2.06
2019-02-06T06:19:50.609Z,-2.10
2019-02-06T06:20:50.593Z,-2.12
2019-02-06T06:21:50.564Z,-2.08
2019-02-06T06:22:50.551Z,-2.16
2019-02-06T06:23:50.528Z,-2.13
2019-02-06T06:24:50.501Z,-2.13
2019-02-06T06:25:50.490Z,-2.13
2019-02-06T06:26:50.463Z,-2.15
2019-02-06T06:27:50.445Z,-2.21
2019-02-06T06:28:50.424Z,-2.13
2019-02-06T06:29:50.399Z,-2.13
2019-02-06T06:30:50.386Z,-2.15
2019-02-06T06:31:50.356Z,-2.06
2019-02-06T06:32:50.335Z,-2.21
2019-02-06T06:33:50.316Z,-2.20
2019-02-06T06:34:50.299Z,-2.12
2019-02-06T06:35:50.274Z,-2.12
2019-02-06T06:36:50.251Z,-2.16
2019-02-06T06:37:59.884Z,-2.15
2019-02-06T06:38:50.210Z,-2.23
2019-02-06T06:39:50.190Z,-2.13
2019-02-06T06:40:50.173Z,-2.15
2019-02-06T06:41:50.151Z,-2.08
2019-02-06T06:42:50.129Z,-2.18
2019-02-06T06:43:50.104Z,-2.18
2019-02-06T06:44:50.091Z,-2.10
2019-02-06T06:45:50.069Z,-2.23
2019-02-06T06:46:50.043Z,-2.10
2019-02-06T06:47:50.022Z,-2.12
2019-02-06T06:48:50.002Z,-2.15
2019-02-06T06:49:49.984Z,-2.20
2019-02-06T06:50:49.966Z,-2.09
2019-02-06T06:51:49.940Z,-2.08
2019-02-06T06:52:49.915Z,-2.16
2019-02-06T06:53:49.900Z,-2.18
2019-02-06T06:54:49.877Z,-2.15
2019-02-06T06:55:49.855Z,-2.16
2019-02-06T06:56:49.840Z,-2.08
2019-02-06T06:57:49.818Z,-2.16
2019-02-06T06:58:49.794Z,-2.15
2019-02-06T06:59:49.774Z,-2.15
2019-02-06T07:00:49.757Z,-2.09
2019-02-06T07:01:49.733Z,-2.12
2019-02-06T07:02:49.710Z,-2.18
2019-02-06T07:03:49.692Z,-2.16
2019-02-06T07:04:49.672Z,-2.21
2019-02-06T07:05:49.655Z,-2.10
2019-02-06T07:06:49.631Z,-2.21
2019-02-06T07:07:49.613Z,-2.08
2019-02-06T07:08:49.590Z,-2.18
2019-02-06T07:09:49.575Z,-2.13
2019-02-06T07:10:49.545Z,-2.13
2019-02-06T07:11:49.567Z,-2.02
2019-02-06T07:12:49.505Z,-1.94
2019-02-06T07:13:51.564Z,-1.94
2019-02-06T07:14:49.476Z,-1.95
2019-02-06T07:15:49.439Z,-1.94
2019-02-06T07:16:49.420Z,-1.84
2019-02-06T07:17:49.401Z,-1.97
2019-02-06T07:18:49.383Z,-1.92
2019-02-06T07:19:49.361Z,-1.84
2019-02-06T07:20:49.335Z,-1.87
2019-02-06T07:21:49.321Z,-1.80
2019-02-06T07:22:49.302Z,-1.84
2019-02-06T07:23:49.277Z,-1.80
2019-02-06T07:24:49.258Z,-1.80
2019-02-06T07:25:49.240Z,-1.85
2019-02-06T07:26:49.215Z,-1.91
2019-02-06T07:27:49.194Z,-1.77
2019-02-06T07:28:49.180Z,-1.74
2019-02-06T07:29:49.154Z,-1.94
2019-02-06T07:30:49.133Z,-1.79
2019-02-06T07:31:49.115Z,-1.90
2019-02-06T07:32:49.094Z,-1.72
2019-02-06T07:33:49.069Z,-1.70
2019-02-06T07:34:49.053Z,-1.77
2019-02-06T07:35:49.038Z,-1.76
2019-02-06T07:36:49.009Z,-1.67
2019-02-06T07:37:48.991Z,-1.66
2019-02-06T07:38:48.974Z,-1.54
2019-02-06T07:39:48.952Z,-1.59
2019-02-06T07:40:48.926Z,-1.46
2019-02-06T07:41:48.901Z,-1.40
2019-02-06T07:42:48.885Z,-1.45
2019-02-06T07:43:48.862Z,-1.52
2019-02-06T07:44:48.844Z,-1.46
2019-02-06T07:45:48.828Z,-1.35
2019-02-06T07:46:48.812Z,-1.43
2019-02-06T07:47:48.779Z,-1.49
2019-02-06T07:48:48.757Z,-1.54
2019-02-06T07:49:48.741Z,-1.41
2019-02-06T07:50:48.722Z,-1.45
2019-02-06T07:51:50.506Z,-1.49
2019-02-06T07:52:48.686Z,-1.46
2019-02-06T07:53:48.658Z,-1.38
2019-02-06T07:54:48.637Z,-1.45
2019-02-06T07:55:48.624Z,-1.38
2019-02-06T07:56:48.595Z,-1.35
2019-02-06T07:57:48.577Z,-1.30
2019-02-06T07:58:50.671Z,-1.34
2019-02-06T07:59:48.541Z,-1.31
2019-02-06T08:00:48.514Z,-1.34
2019-02-06T08:01:48.502Z,-1.20
2019-02-06T08:02:48.476Z,-1.15
2019-02-06T08:03:48.456Z,-1.02
2019-02-06T08:04:48.454Z,-0.99
2019-02-06T08:05:48.412Z,-0.82
2019-02-06T08:06:48.397Z,-0.82
2019-02-06T08:07:48.382Z,-0.67
2019-02-06T08:08:48.349Z,-0.61
2019-02-06T08:09:48.331Z,-0.47
2019-02-06T08:10:48.309Z,-0.39
2019-02-06T08:11:48.287Z,-0.29
2019-02-06T08:12:48.273Z,-0.16
2019-02-06T08:13:48.253Z,-0.04
2019-02-06T08:14:48.237Z,0.14
2019-02-06T08:15:48.213Z,0.26
2019-02-06T08:16:48.190Z,0.33
2019-02-06T08:17:48.171Z,0.53
2019-02-06T08:18:48.146Z,0.73
2019-02-06T08:19:48.134Z,0.88
2019-02-06T08:20:48.114Z,1.02
2019-02-06T08:21:49.732Z,1.12
2019-02-06T08:22:48.084Z,1.29
2019-02-06T08:23:48.050Z,1.42
2019-02-06T08:24:48.037Z,1.45
2019-02-06T08:25:48.024Z,1.60
2019-02-06T08:26:47.997Z,1.79
2019-02-06T08:27:47.976Z,1.88
2019-02-06T08:28:47.951Z,2.07
2019-02-06T08:29:47.939Z,2.14
2019-02-06T08:30:47.915Z,2.27
2019-02-06T08:31:47.899Z,2.36
2019-02-06T08:32:47.880Z,2.54
2019-02-06T08:33:47.865Z,2.63
2019-02-06T08:34:47.847Z,2.56
2019-02-06T08:35:47.824Z,2.66
2019-02-06T08:36:47.802Z,2.69
2019-02-06T08:37:47.786Z,2.60
2019-02-06T08:38:48.530Z,2.69
2019-02-06T08:39:47.748Z,2.79
2019-02-06T08:40:47.731Z,2.87
2019-02-06T08:41:47.711Z,2.90
2019-02-06T08:42:47.695Z,2.82
2019-02-06T08:43:47.675Z,2.85
2019-02-06T08:44:47.652Z,2.97
2019-02-06T08:45:47.643Z,3.03
2019-02-06T08:46:47.622Z,2.95
2019-02-06T08:47:47.602Z,2.99
2019-02-06T08:48:47.593Z,3.08
2019-02-06T08:49:47.565Z,3.21
2019-02-06T08:50:47.556Z,3.43
2019-02-06T08:51:47.521Z,3.52
2019-02-06T08:52:47.511Z,3.80
2019-02-06T08:53:47.496Z,3.96
2019-02-06T08:54:47.479Z,4.08
2019-02-06T08:55:47.452Z,4.33
2019-02-06T08:56:47.443Z,4.41
2019-02-06T08:57:47.420Z,4.50
2019-02-06T08:58:47.399Z,4.77
2019-02-06T08:59:47.390Z,4.73
2019-02-06T09:00:47.371Z,4.86
2019-02-06T09:01:47.351Z,5.00
2019-02-06T09:02:47.331Z,5.22
2019-02-06T09:03:47.318Z,5.28
2019-02-06T09:04:55.622Z,5.39
2019-02-06T09:05:47.281Z,5.27
2019-02-06T09:06:47.264Z,5.33
2019-02-06T09:07:47.248Z,5.43
2019-02-06T09:08:58.989Z,5.49
2019-02-06T09:09:47.218Z,5.54
2019-02-06T09:10:47.198Z,5.57
2019-02-06T09:11:47.178Z,5.56
2019-02-06T09:12:47.166Z,5.43
2019-02-06T09:13:47.145Z,5.30
2019-02-06T09:14:47.134Z,5.27
2019-02-06T09:15:47.115Z,5.07
2019-02-06T09:16:47.097Z,5.20
2019-02-06T09:17:47.084Z,5.27
2019-02-06T09:18:47.078Z,5.43
2019-02-06T09:19:47.043Z,5.56
2019-02-06T09:20:47.035Z,5.78
2019-02-06T09:21:47.016Z,5.89
2019-02-06T09:22:47.005Z,6.04
2019-02-06T09:23:46.989Z,6.38
2019-02-06T09:24:46.964Z,6.52
2019-02-06T09:25:46.950Z,6.70
2019-02-06T09:26:47.054Z,6.77
2019-02-06T09:27:46.922Z,6.99
2019-02-06T09:28:46.904Z,6.97
2019-02-06T09:29:46.883Z,6.80
2019-02-06T09:30:46.871Z,6.40
2019-02-06T09:31:46.857Z,5.91
2019-02-06T09:32:46.841Z,5.85
2019-02-06T09:33:46.829Z,5.54
2019-02-06T09:34:46.807Z,5.33
2019-02-06T09:35:46.791Z,5.00
2019-02-06T09:36:46.777Z,4.80
2019-02-06T09:37:46.760Z,4.54
2019-02-06T09:38:46.744Z,4.54
2019-02-06T09:39:46.726Z,4.41
2019-02-06T09:40:49.390Z,4.59
2019-02-06T09:41:46.699Z,4.72
2019-02-06T09:42:46.682Z,4.86
2019-02-06T09:43:46.666Z,5.09
2019-02-06T09:44:46.649Z,5.28
2019-02-06T09:45:46.635Z,5.36
2019-02-06T09:46:46.615Z,5.64
2019-02-06T09:47:46.600Z,5.78
2019-02-06T09:48:46.588Z,5.91
2019-02-06T09:49:49.671Z,6.18
2019-02-06T09:50:46.555Z,6.44
2019-02-06T09:51:46.544Z,6.69
2019-02-06T09:52:46.527Z,6.98
2019-02-06T09:53:46.511Z,6.98
2019-02-06T09:54:46.497Z,7.12
2019-02-06T09:55:46.476Z,7.24
2019-02-06T09:56:46.476Z,7.37
2019-02-06T09:57:46.463Z,7.46
2019-02-06T09:58:46.436Z,7.48
2019-02-06T09:59:46.420Z,7.61
2019-02-06T10:00:46.400Z,7.63
2019-02-06T10:01:46.390Z,7.50
2019-02-06T10:02:46.373Z,7.63
2019-02-06T10:03:47.045Z,7.64
2019-02-06T10:04:46.338Z,7.77
2019-02-06T10:05:46.336Z,7.82
2019-02-06T10:06:46.312Z,7.53
2019-02-06T10:07:46.368Z,7.37
2019-02-06T10:08:46.283Z,7.25
2019-02-06T10:09:46.261Z,7.49
2019-02-06T10:10:46.254Z,7.49
2019-02-06T10:11:46.233Z,7.49
2019-02-06T10:12:46.221Z,7.58
2019-02-06T10:13:46.212Z,7.64
2019-02-06T10:14:46.189Z,7.77
2019-02-06T10:15:46.176Z,7.64
2019-02-06T10:16:46.162Z,7.25
2019-02-06T10:17:46.147Z,6.98
2019-02-06T10:18:46.134Z,6.71
2019-02-06T10:19:46.138Z,6.52
2019-02-06T10:20:46.106Z,6.37
2019-02-06T10:21:46.090Z,6.38
2019-02-06T10:22:46.084Z,6.08
2019-02-06T10:23:46.062Z,6.12
2019-02-06T10:24:46.050Z,6.08
2019-02-06T10:25:46.031Z,6.21
2019-02-06T10:26:46.019Z,6.38
2019-02-06T10:27:46.002Z,6.62
2019-02-06T10:28:45.985Z,6.74
2019-02-06T10:29:45.974Z,6.87
2019-02-06T10:30:45.960Z,7.09
2019-02-06T10:31:45.948Z,7.37
2019-02-06T10:32:45.930Z,7.53
2019-02-06T10:33:45.916Z,7.63
2019-02-06T10:34:45.909Z,7.68
2019-02-06T10:35:45.885Z,8.00
2019-02-06T10:36:45.873Z,8.20
2019-02-06T10:37:45.863Z,8.30
2019-02-06T10:38:45.844Z,8.47
2019-02-06T10:39:45.828Z,8.68
2019-02-06T10:40:45.815Z,8.77
2019-02-06T10:41:45.800Z,8.80
2019-02-06T10:42:45.784Z,8.65
2019-02-06T10:43:45.775Z,8.68
2019-02-06T10:44:45.754Z,8.61
2019-02-06T10:45:45.749Z,8.63
2019-02-06T10:46:45.737Z,8.68
2019-02-06T10:47:45.712Z,8.91
2019-02-06T10:48:45.702Z,9.08
2019-02-06T10:49:45.688Z,9.35
2019-02-06T10:50:45.673Z,9.65
2019-02-06T10:51:45.665Z,9.83
2019-02-06T10:52:48.219Z,9.94
2019-02-06T10:53:45.636Z,10.20
2019-02-06T10:54:45.629Z,10.05
2019-02-06T10:55:45.600Z,10.15
2019-02-06T10:56:45.589Z,10.41
2019-02-06T10:57:45.582Z,10.59
2019-02-06T10:58:45.567Z,10.67
2019-02-06T10:59:45.550Z,10.76
2019-02-06T11:00:45.540Z,10.94
2019-02-06T11:01:45.530Z,11.06
2019-02-06T11:02:45.519Z,11.32
2019-02-06T11:03:45.499Z,11.39
2019-02-06T11:04:45.483Z,11.25
2019-02-06T11:05:45.471Z,11.17
2019-02-06T11:06:45.459Z,11.25
2019-02-06T11:07:46.197Z,11.24
2019-02-06T11:08:45.435Z,11.40
2019-02-06T11:09:46.504Z,11.60
2019-02-06T11:10:45.410Z,11.65
2019-02-06T11:11:45.399Z,11.82
2019-02-06T11:12:45.376Z,11.80
2019-02-06T11:13:45.371Z,11.90
2019-02-06T11:14:45.358Z,12.05
2019-02-06T11:15:45.344Z,12.28
2019-02-06T11:16:45.329Z,12.50
2019-02-06T11:17:45.324Z,12.71
2019-02-06T11:18:45.312Z,12.93
2019-02-06T11:19:45.294Z,13.07
2019-02-06T11:20:45.286Z,13.38
2019-02-06T11:21:45.277Z,13.51
2019-02-06T11:22:45.263Z,13.73
2019-02-06T11:23:45.247Z,13.88
2019-02-06T11:24:45.235Z,14.03
2019-02-06T11:25:45.218Z,14.09
2019-02-06T11:26:45.207Z,14.06
2019-02-06T11:27:45.196Z,14.20
2019-02-06T11:28:45.189Z,14.21
2019-02-06T11:29:45.175Z,14.21
2019-02-06T11:30:45.170Z,14.09
2019-02-06T11:31:45.158Z,14.02
2019-02-06T11:32:45.140Z,13.84
2019-02-06T11:33:45.133Z,13.63
2019-02-06T11:34:45.124Z,13.44
2019-02-06T11:35:45.103Z,13.45
2019-02-06T11:36:45.095Z,13.36
2019-02-06T11:37:45.088Z,13.36
2019-02-06T11:38:45.075Z,13.33
2019-02-06T11:39:45.063Z,13.51
2019-02-06T11:40:45.058Z,13.55
2019-02-06T11:41:45.042Z,13.77
2019-02-06T11:42:45.033Z,13.85
2019-02-06T11:43:45.013Z,14.02
2019-02-06T11:44:45.008Z,14.00
2019-02-06T11:45:44.998Z,14.04
2019-02-06T11:46:44.985Z,13.89
2019-02-06T11:47:44.981Z,13.81
2019-02-06T11:48:44.966Z,13.64
2019-02-06T11:49:44.955Z,13.75
2019-02-06T11:50:44.946Z,13.84
2019-02-06T11:51:44.931Z,13.85
2019-02-06T11:52:44.924Z,14.04
2019-02-06T11:53:44.908Z,14.14
2019-02-06T11:54:44.910Z,14.27
2019-02-06T11:55:44.884Z,14.28
2019-02-06T11:56:44.880Z,14.27
2019-02-06T11:57:44.870Z,14.36
2019-02-06T11:58:44.856Z,14.18
2019-02-06T11:59:44.841Z,14.20
2019-02-06T12:00:44.843Z,14.29
2019-02-06T12:01:44.825Z,14.24
2019-02-06T12:02:44.819Z,14.29
2019-02-06T12:03:44.804Z,14.07
2019-02-06T12:04:44.798Z,13.88
2019-02-06T12:05:44.783Z,13.73
2019-02-06T12:06:44.774Z,13.59
2019-02-06T12:07:44.765Z,13.42
2019-02-06T12:08:44.756Z,13.33
2019-02-06T12:09:44.747Z,13.15
2019-02-06T12:10:44.731Z,13.12
2019-02-06T12:11:44.721Z,13.20
2019-02-06T12:12:44.719Z,13.12
2019-02-06T12:13:44.703Z,13.26
2019-02-06T12:14:44.699Z,13.23
2019-02-06T12:15:44.681Z,13.25
2019-02-06T12:16:44.669Z,13.23
2019-02-06T12:17:44.664Z,13.20
2019-02-06T12:18:44.649Z,13.22
2019-02-06T12:19:44.638Z,12.87
2019-02-06T12:20:44.637Z,12.72
2019-02-06T12:21:44.618Z,12.79
2019-02-06T12:22:44.605Z,12.59
2019-02-06T12:23:44.593Z,12.52
2019-02-06T12:24:44.588Z,12.86
2019-02-06T12:25:44.579Z,12.71
2019-02-06T12:26:44.572Z,12.68
2019-02-06T12:27:44.562Z,12.75
2019-02-06T12:28:44.545Z,12.85
2019-02-06T12:29:44.542Z,12.86
2019-02-06T12:30:44.527Z,12.96
2019-02-06T12:31:44.510Z,13.01
2019-02-06T12:32:52.010Z,13.17
2019-02-06T12:33:44.494Z,13.30
2019-02-06T12:34:44.483Z,13.39
2019-02-06T12:35:44.475Z,13.41
2019-02-06T12:36:44.462Z,13.29
2019-02-06T12:37:44.451Z,13.03
2019-02-06T12:38:53.160Z,13.03
2019-02-06T12:39:44.437Z,12.93
2019-02-06T12:40:44.420Z,13.04
2019-02-06T12:41:44.410Z,12.96
2019-02-06T12:42:44.398Z,12.90
2019-02-06T12:43:44.386Z,12.85
2019-02-06T12:44:44.377Z,12.79
2019-02-06T12:45:44.372Z,12.78
2019-02-06T12:46:44.356Z,12.77
2019-02-06T12:47:44.344Z,12.71
2019-02-06T12:48:44.334Z,12.78
2019-02-06T12:49:44.325Z,12.65
2019-02-06T12:50:44.319Z,12.62
2019-02-06T12:51:44.302Z,12.82
2019-02-06T12:52:44.295Z,12.79
2019-02-06T12:53:44.281Z,12.77
2019-02-06T12:54:44.271Z,12.74
2019-02-06T12:55:44.259Z,12.78
2019-02-06T12:56:44.250Z,12.89
2019-02-06T12:57:44.242Z,13.07